sensor_id;sensor_type;location;lat;lon;timestamp;P1;durP1;ratioP1;P2;durP2;ratioP2
37903;SDS011;23738;50.422;18.758;2023-04-01T00:01:25;11.10;;;9.40;;
37903;SDS011;23738;50.422;18.758;2023-04-01T00:03:55;9.80;;;7.20;;
37903;SDS011;23738;50.422;18.758;2023-04-01T00:06:24;14.80;;;7.10;;
37903;SDS011;23738;50.422;18.758;2023-04-01T00:08:54;8.80;;;5.80;;
37903;SDS011;23738;50.422;18.758;2023-04-01T00:11:23;8.00;;;6.70;;
37903;SDS011;23738;50.422;18.758;2023-04-01T00:13:54;7.70;;;6.00;;
37903;SDS011;23738;50.422;18.758;2023-04-01T00:16:23;8.50;;;6.60;;
37903;SDS011;23738;50.422;18.758;2023-04-01T00:18:53;18.80;;;13.70;;
37903;SDS011;23738;50.422;18.758;2023-04-01T00:21:22;43.60;;;27.50;;
37903;SDS011;23738;50.422;18.758;2023-04-01T00:23:52;12.10;;;9.10;;
37903;SDS011;23738;50.422;18.758;2023-04-01T00:26:21;9.00;;;6.90;;
37903;SDS011;23738;50.422;18.758;2023-04-01T00:28:51;10.30;;;8.70;;
37903;SDS011;23738;50.422;18.758;2023-04-01T00:31:21;12.40;;;9.00;;
37903;SDS011;23738;50.422;18.758;2023-04-01T00:33:51;16.80;;;11.90;;
37903;SDS011;23738;50.422;18.758;2023-04-01T00:36:21;15.20;;;10.70;;
37903;SDS011;23738;50.422;18.758;2023-04-01T00:38:50;11.70;;;9.00;;
37903;SDS011;23738;50.422;18.758;2023-04-01T00:41:19;13.50;;;8.50;;
37903;SDS011;23738;50.422;18.758;2023-04-01T00:43:49;10.00;;;8.50;;
37903;SDS011;23738;50.422;18.758;2023-04-01T00:46:19;10.20;;;8.40;;
37903;SDS011;23738;50.422;18.758;2023-04-01T00:48:50;9.70;;;6.50;;
37903;SDS011;23738;50.422;18.758;2023-04-01T00:51:22;7.60;;;6.10;;
37903;SDS011;23738;50.422;18.758;2023-04-01T00:53:56;8.00;;;5.70;;
37903;SDS011;23738;50.422;18.758;2023-04-01T00:56:31;6.90;;;5.30;;
37903;SDS011;23738;50.422;18.758;2023-04-01T00:59:04;6.60;;;5.10;;
37903;SDS011;23738;50.422;18.758;2023-04-01T01:01:37;6.20;;;5.30;;
37903;SDS011;23738;50.422;18.758;2023-04-01T01:04:06;8.40;;;6.50;;
37903;SDS011;23738;50.422;18.758;2023-04-01T01:06:50;6.50;;;5.70;;
37903;SDS011;23738;50.422;18.758;2023-04-01T01:09:30;9.00;;;5.70;;
37903;SDS011;23738;50.422;18.758;2023-04-01T01:12:07;7.00;;;5.50;;
37903;SDS011;23738;50.422;18.758;2023-04-01T01:14:45;8.90;;;5.80;;
37903;SDS011;23738;50.422;18.758;2023-04-01T01:17:22;8.40;;;5.80;;
37903;SDS011;23738;50.422;18.758;2023-04-01T01:23:13;15.70;;;11.60;;
37903;SDS011;23738;50.422;18.758;2023-04-01T01:25:59;13.20;;;10.20;;
37903;SDS011;23738;50.422;18.758;2023-04-01T01:28:51;15.10;;;10.60;;
37903;SDS011;23738;50.422;18.758;2023-04-01T01:31:31;15.60;;;11.40;;
37903;SDS011;23738;50.422;18.758;2023-04-01T01:34:08;12.60;;;8.60;;
37903;SDS011;23738;50.422;18.758;2023-04-01T01:36:47;14.80;;;8.60;;
37903;SDS011;23738;50.422;18.758;2023-04-01T01:39:20;12.60;;;7.00;;
37903;SDS011;23738;50.422;18.758;2023-04-01T01:41:54;9.20;;;6.80;;
37903;SDS011;23738;50.422;18.758;2023-04-01T01:44:27;13.00;;;8.30;;
37903;SDS011;23738;50.422;18.758;2023-04-01T01:46:58;11.30;;;8.90;;
37903;SDS011;23738;50.422;18.758;2023-04-01T01:49:29;8.30;;;7.50;;
37903;SDS011;23738;50.422;18.758;2023-04-01T01:52:03;11.80;;;9.10;;
37903;SDS011;23738;50.422;18.758;2023-04-01T01:54:33;18.00;;;10.60;;
37903;SDS011;23738;50.422;18.758;2023-04-01T01:57:03;23.20;;;12.50;;
37903;SDS011;23738;50.422;18.758;2023-04-01T01:59:35;27.30;;;14.30;;
37903;SDS011;23738;50.422;18.758;2023-04-01T02:02:08;27.10;;;13.40;;
37903;SDS011;23738;50.422;18.758;2023-04-01T02:04:41;24.10;;;14.00;;
37903;SDS011;23738;50.422;18.758;2023-04-01T02:07:13;18.00;;;11.60;;
37903;SDS011;23738;50.422;18.758;2023-04-01T02:09:48;15.40;;;10.30;;
37903;SDS011;23738;50.422;18.758;2023-04-01T02:12:18;15.30;;;10.70;;
37903;SDS011;23738;50.422;18.758;2023-04-01T02:14:51;16.30;;;9.80;;
37903;SDS011;23738;50.422;18.758;2023-04-01T02:17:25;15.40;;;9.30;;
37903;SDS011;23738;50.422;18.758;2023-04-01T02:19:58;14.20;;;9.20;;
37903;SDS011;23738;50.422;18.758;2023-04-01T02:22:31;10.40;;;8.30;;
37903;SDS011;23738;50.422;18.758;2023-04-01T02:25:04;14.80;;;9.20;;
37903;SDS011;23738;50.422;18.758;2023-04-01T02:27:36;19.60;;;10.80;;
37903;SDS011;23738;50.422;18.758;2023-04-01T02:30:07;17.60;;;10.20;;
37903;SDS011;23738;50.422;18.758;2023-04-01T02:32:38;15.10;;;7.70;;
37903;SDS011;23738;50.422;18.758;2023-04-01T02:35:10;11.00;;;7.10;;
37903;SDS011;23738;50.422;18.758;2023-04-01T02:37:41;8.40;;;6.70;;
37903;SDS011;23738;50.422;18.758;2023-04-01T02:40:15;8.60;;;6.80;;
37903;SDS011;23738;50.422;18.758;2023-04-01T02:42:45;9.90;;;7.90;;
37903;SDS011;23738;50.422;18.758;2023-04-01T02:45:14;13.40;;;8.60;;
37903;SDS011;23738;50.422;18.758;2023-04-01T02:47:44;11.10;;;8.10;;
37903;SDS011;23738;50.422;18.758;2023-04-01T02:50:13;8.50;;;6.50;;
37903;SDS011;23738;50.422;18.758;2023-04-01T02:52:42;8.00;;;5.70;;
37903;SDS011;23738;50.422;18.758;2023-04-01T02:55:12;8.20;;;5.50;;
37903;SDS011;23738;50.422;18.758;2023-04-01T02:57:41;10.10;;;5.80;;
37903;SDS011;23738;50.422;18.758;2023-04-01T03:00:11;8.70;;;5.90;;
37903;SDS011;23738;50.422;18.758;2023-04-01T03:02:42;8.80;;;5.80;;
37903;SDS011;23738;50.422;18.758;2023-04-01T03:05:12;8.60;;;6.60;;
37903;SDS011;23738;50.422;18.758;2023-04-01T03:07:42;8.30;;;5.50;;
37903;SDS011;23738;50.422;18.758;2023-04-01T03:10:11;7.20;;;5.50;;
37903;SDS011;23738;50.422;18.758;2023-04-01T03:12:41;11.00;;;5.60;;
37903;SDS011;23738;50.422;18.758;2023-04-01T03:15:11;8.10;;;5.90;;
37903;SDS011;23738;50.422;18.758;2023-04-01T03:17:41;6.40;;;5.80;;
37903;SDS011;23738;50.422;18.758;2023-04-01T03:20:13;8.50;;;5.80;;
37903;SDS011;23738;50.422;18.758;2023-04-01T03:22:42;7.70;;;6.60;;
37903;SDS011;23738;50.422;18.758;2023-04-01T03:25:12;6.00;;;5.20;;
37903;SDS011;23738;50.422;18.758;2023-04-01T03:27:41;8.80;;;5.60;;
37903;SDS011;23738;50.422;18.758;2023-04-01T03:30:11;8.50;;;4.90;;
37903;SDS011;23738;50.422;18.758;2023-04-01T03:32:40;8.30;;;4.90;;
37903;SDS011;23738;50.422;18.758;2023-04-01T03:35:10;6.60;;;5.30;;
37903;SDS011;23738;50.422;18.758;2023-04-01T03:37:39;10.90;;;5.90;;
37903;SDS011;23738;50.422;18.758;2023-04-01T03:40:09;7.50;;;6.10;;
37903;SDS011;23738;50.422;18.758;2023-04-01T03:42:39;6.50;;;4.70;;
37903;SDS011;23738;50.422;18.758;2023-04-01T03:45:09;7.70;;;4.50;;
37903;SDS011;23738;50.422;18.758;2023-04-01T03:47:39;5.80;;;3.50;;
37903;SDS011;23738;50.422;18.758;2023-04-01T03:50:09;7.10;;;4.00;;
37903;SDS011;23738;50.422;18.758;2023-04-01T03:52:38;6.00;;;3.70;;
37903;SDS011;23738;50.422;18.758;2023-04-01T03:55:08;5.10;;;4.00;;
37903;SDS011;23738;50.422;18.758;2023-04-01T03:57:38;7.20;;;4.60;;
37903;SDS011;23738;50.422;18.758;2023-04-01T04:00:08;5.30;;;3.80;;
37903;SDS011;23738;50.422;18.758;2023-04-01T04:02:39;5.40;;;3.30;;
37903;SDS011;23738;50.422;18.758;2023-04-01T04:05:08;8.00;;;3.80;;
37903;SDS011;23738;50.422;18.758;2023-04-01T04:07:37;6.60;;;3.30;;
37903;SDS011;23738;50.422;18.758;2023-04-01T04:10:08;5.40;;;3.50;;
37903;SDS011;23738;50.422;18.758;2023-04-01T04:12:37;7.20;;;3.30;;
37903;SDS011;23738;50.422;18.758;2023-04-01T04:15:07;6.00;;;3.20;;
37903;SDS011;23738;50.422;18.758;2023-04-01T04:17:38;6.50;;;3.90;;
37903;SDS011;23738;50.422;18.758;2023-04-01T04:20:08;7.00;;;3.10;;
37903;SDS011;23738;50.422;18.758;2023-04-01T04:22:39;4.20;;;2.70;;
37903;SDS011;23738;50.422;18.758;2023-04-01T04:25:09;4.20;;;2.90;;
37903;SDS011;23738;50.422;18.758;2023-04-01T04:27:38;4.50;;;3.50;;
37903;SDS011;23738;50.422;18.758;2023-04-01T04:30:08;13.20;;;5.10;;
37903;SDS011;23738;50.422;18.758;2023-04-01T04:32:38;5.40;;;3.90;;
37903;SDS011;23738;50.422;18.758;2023-04-01T04:35:08;8.30;;;3.80;;
37903;SDS011;23738;50.422;18.758;2023-04-01T04:37:38;5.70;;;3.50;;
37903;SDS011;23738;50.422;18.758;2023-04-01T04:40:08;6.30;;;3.20;;
37903;SDS011;23738;50.422;18.758;2023-04-01T04:42:37;6.00;;;3.70;;
37903;SDS011;23738;50.422;18.758;2023-04-01T04:45:07;7.60;;;4.30;;
37903;SDS011;23738;50.422;18.758;2023-04-01T04:47:39;5.60;;;4.30;;
37903;SDS011;23738;50.422;18.758;2023-04-01T04:50:09;11.50;;;5.00;;
37903;SDS011;23738;50.422;18.758;2023-04-01T04:52:39;13.90;;;9.40;;
37903;SDS011;23738;50.422;18.758;2023-04-01T04:55:08;9.70;;;7.60;;
37903;SDS011;23738;50.422;18.758;2023-04-01T04:57:37;9.20;;;6.80;;
37903;SDS011;23738;50.422;18.758;2023-04-01T05:00:08;7.60;;;6.50;;
37903;SDS011;23738;50.422;18.758;2023-04-01T05:02:38;9.10;;;6.90;;
37903;SDS011;23738;50.422;18.758;2023-04-01T05:05:08;8.50;;;6.90;;
37903;SDS011;23738;50.422;18.758;2023-04-01T05:07:37;9.20;;;7.80;;
37903;SDS011;23738;50.422;18.758;2023-04-01T05:10:07;12.20;;;7.60;;
37903;SDS011;23738;50.422;18.758;2023-04-01T05:12:37;14.70;;;8.40;;
37903;SDS011;23738;50.422;18.758;2023-04-01T05:15:07;16.70;;;11.00;;
37903;SDS011;23738;50.422;18.758;2023-04-01T05:17:37;12.60;;;9.30;;
37903;SDS011;23738;50.422;18.758;2023-04-01T05:20:07;24.00;;;16.20;;
37903;SDS011;23738;50.422;18.758;2023-04-01T05:22:39;33.00;;;18.80;;
37903;SDS011;23738;50.422;18.758;2023-04-01T05:25:08;23.60;;;15.20;;
37903;SDS011;23738;50.422;18.758;2023-04-01T05:27:38;20.40;;;11.70;;
37903;SDS011;23738;50.422;18.758;2023-04-01T05:30:08;16.60;;;11.40;;
37903;SDS011;23738;50.422;18.758;2023-04-01T05:32:38;8.10;;;7.10;;
37903;SDS011;23738;50.422;18.758;2023-04-01T05:35:08;10.40;;;7.90;;
37903;SDS011;23738;50.422;18.758;2023-04-01T05:37:37;13.10;;;7.70;;
37903;SDS011;23738;50.422;18.758;2023-04-01T05:40:08;9.10;;;6.40;;
37903;SDS011;23738;50.422;18.758;2023-04-01T05:42:38;8.70;;;5.90;;
37903;SDS011;23738;50.422;18.758;2023-04-01T05:45:08;7.10;;;5.60;;
37903;SDS011;23738;50.422;18.758;2023-04-01T05:47:38;6.30;;;3.90;;
37903;SDS011;23738;50.422;18.758;2023-04-01T05:50:09;7.40;;;4.90;;
37903;SDS011;23738;50.422;18.758;2023-04-01T05:52:38;5.80;;;4.70;;
37903;SDS011;23738;50.422;18.758;2023-04-01T05:55:08;7.70;;;4.50;;
37903;SDS011;23738;50.422;18.758;2023-04-01T05:57:38;7.50;;;5.40;;
37903;SDS011;23738;50.422;18.758;2023-04-01T06:00:08;6.90;;;4.90;;
37903;SDS011;23738;50.422;18.758;2023-04-01T06:02:40;7.60;;;4.30;;
37903;SDS011;23738;50.422;18.758;2023-04-01T06:05:17;7.80;;;5.60;;
37903;SDS011;23738;50.422;18.758;2023-04-01T06:07:48;10.60;;;6.50;;
37903;SDS011;23738;50.422;18.758;2023-04-01T06:10:36;12.90;;;8.90;;
37903;SDS011;23738;50.422;18.758;2023-04-01T06:13:18;13.50;;;10.40;;
37903;SDS011;23738;50.422;18.758;2023-04-01T06:16:01;11.10;;;9.40;;
37903;SDS011;23738;50.422;18.758;2023-04-01T06:21:40;8.80;;;6.70;;
37903;SDS011;23738;50.422;18.758;2023-04-01T06:24:28;7.30;;;5.00;;
37903;SDS011;23738;50.422;18.758;2023-04-01T06:27:12;9.00;;;5.70;;
37903;SDS011;23738;50.422;18.758;2023-04-01T06:29:52;195.50;;;124.10;;
37903;SDS011;23738;50.422;18.758;2023-04-01T06:32:39;434.20;;;226.10;;
37903;SDS011;23738;50.422;18.758;2023-04-01T06:35:25;1121.10;;;634.80;;
37903;SDS011;23738;50.422;18.758;2023-04-01T06:38:16;290.10;;;119.90;;
37903;SDS011;23738;50.422;18.758;2023-04-01T06:44:04;161.50;;;77.00;;
37903;SDS011;23738;50.422;18.758;2023-04-01T06:46:44;154.50;;;116.60;;
37903;SDS011;23738;50.422;18.758;2023-04-01T06:49:24;94.50;;;65.70;;
37903;SDS011;23738;50.422;18.758;2023-04-01T06:52:02;20.40;;;15.40;;
37903;SDS011;23738;50.422;18.758;2023-04-01T06:54:38;19.50;;;14.10;;
37903;SDS011;23738;50.422;18.758;2023-04-01T06:57:16;13.60;;;9.70;;
37903;SDS011;23738;50.422;18.758;2023-04-01T06:59:52;8.70;;;7.40;;
37903;SDS011;23738;50.422;18.758;2023-04-01T07:02:25;9.90;;;7.80;;
37903;SDS011;23738;50.422;18.758;2023-04-01T07:05:01;15.20;;;9.50;;
37903;SDS011;23738;50.422;18.758;2023-04-01T07:07:33;11.90;;;8.00;;
37903;SDS011;23738;50.422;18.758;2023-04-01T07:10:09;58.40;;;21.40;;
37903;SDS011;23738;50.422;18.758;2023-04-01T07:12:44;71.10;;;33.60;;
37903;SDS011;23738;50.422;18.758;2023-04-01T07:15:18;58.60;;;18.30;;
37903;SDS011;23738;50.422;18.758;2023-04-01T07:17:53;116.40;;;25.80;;
37903;SDS011;23738;50.422;18.758;2023-04-01T07:20:27;51.30;;;13.60;;
37903;SDS011;23738;50.422;18.758;2023-04-01T07:23:00;20.00;;;8.80;;
37903;SDS011;23738;50.422;18.758;2023-04-01T07:25:33;14.60;;;8.30;;
37903;SDS011;23738;50.422;18.758;2023-04-01T07:28:06;65.50;;;15.50;;
37903;SDS011;23738;50.422;18.758;2023-04-01T07:33:13;169.00;;;35.50;;
37903;SDS011;23738;50.422;18.758;2023-04-01T07:35:49;156.20;;;39.30;;
37903;SDS011;23738;50.422;18.758;2023-04-01T07:38:29;130.40;;;36.40;;
37903;SDS011;23738;50.422;18.758;2023-04-01T07:41:08;213.20;;;55.20;;
37903;SDS011;23738;50.422;18.758;2023-04-01T07:43:47;231.50;;;52.50;;
37903;SDS011;23738;50.422;18.758;2023-04-01T07:46:28;292.30;;;69.80;;
37903;SDS011;23738;50.422;18.758;2023-04-01T07:49:07;359.30;;;97.20;;
37903;SDS011;23738;50.422;18.758;2023-04-01T07:54:15;303.70;;;90.00;;
37903;SDS011;23738;50.422;18.758;2023-04-01T07:56:51;399.40;;;127.10;;
37903;SDS011;23738;50.422;18.758;2023-04-01T07:59:26;268.10;;;80.20;;
37903;SDS011;23738;50.422;18.758;2023-04-01T08:02:08;74.30;;;24.20;;
37903;SDS011;23738;50.422;18.758;2023-04-01T08:04:51;42.50;;;18.80;;
37903;SDS011;23738;50.422;18.758;2023-04-01T08:07:29;14.40;;;8.60;;
37903;SDS011;23738;50.422;18.758;2023-04-01T08:10:10;22.30;;;14.10;;
37903;SDS011;23738;50.422;18.758;2023-04-01T08:12:48;17.10;;;10.60;;
37903;SDS011;23738;50.422;18.758;2023-04-01T08:15:27;18.30;;;11.00;;
37903;SDS011;23738;50.422;18.758;2023-04-01T08:18:08;21.30;;;9.70;;
37903;SDS011;23738;50.422;18.758;2023-04-01T08:20:49;21.70;;;7.80;;
37903;SDS011;23738;50.422;18.758;2023-04-01T08:23:22;11.60;;;6.40;;
37903;SDS011;23738;50.422;18.758;2023-04-01T08:25:56;16.40;;;9.20;;
37903;SDS011;23738;50.422;18.758;2023-04-01T08:28:32;24.90;;;12.40;;
37903;SDS011;23738;50.422;18.758;2023-04-01T08:31:08;22.20;;;12.80;;
37903;SDS011;23738;50.422;18.758;2023-04-01T08:33:40;32.80;;;15.50;;
37903;SDS011;23738;50.422;18.758;2023-04-01T08:36:14;12.50;;;8.30;;
37903;SDS011;23738;50.422;18.758;2023-04-01T08:38:44;50.10;;;20.20;;
37903;SDS011;23738;50.422;18.758;2023-04-01T08:41:25;31.10;;;15.40;;
37903;SDS011;23738;50.422;18.758;2023-04-01T08:51:03;10.70;;;6.70;;
37903;SDS011;23738;50.422;18.758;2023-04-01T08:53:54;12.90;;;9.40;;
37903;SDS011;23738;50.422;18.758;2023-04-01T08:56:50;7.90;;;6.60;;
37903;SDS011;23738;50.422;18.758;2023-04-01T08:59:31;6.50;;;5.20;;
37903;SDS011;23738;50.422;18.758;2023-04-01T09:08:28;8.80;;;7.70;;
37903;SDS011;23738;50.422;18.758;2023-04-01T09:11:12;10.20;;;5.70;;
37903;SDS011;23738;50.422;18.758;2023-04-01T09:14:01;11.60;;;7.30;;
37903;SDS011;23738;50.422;18.758;2023-04-01T09:16:46;9.60;;;7.80;;
37903;SDS011;23738;50.422;18.758;2023-04-01T09:19:34;8.80;;;7.50;;
37903;SDS011;23738;50.422;18.758;2023-04-01T09:22:26;8.70;;;7.80;;
37903;SDS011;23738;50.422;18.758;2023-04-01T09:25:27;8.60;;;7.70;;
37903;SDS011;23738;50.422;18.758;2023-04-01T09:28:14;9.20;;;8.30;;
37903;SDS011;23738;50.422;18.758;2023-04-01T09:30:57;9.00;;;6.80;;
37903;SDS011;23738;50.422;18.758;2023-04-01T09:36:49;5.70;;;4.90;;
37903;SDS011;23738;50.422;18.758;2023-04-01T09:45:20;4.60;;;4.10;;
37903;SDS011;23738;50.422;18.758;2023-04-01T09:48:08;5.50;;;3.60;;
37903;SDS011;23738;50.422;18.758;2023-04-01T09:50:50;4.20;;;3.10;;
37903;SDS011;23738;50.422;18.758;2023-04-01T09:53:31;5.60;;;3.60;;
37903;SDS011;23738;50.422;18.758;2023-04-01T09:56:31;3.80;;;3.30;;
37903;SDS011;23738;50.422;18.758;2023-04-01T09:59:39;6.20;;;4.20;;
37903;SDS011;23738;50.422;18.758;2023-04-01T10:05:35;3.80;;;2.60;;
37903;SDS011;23738;50.422;18.758;2023-04-01T10:08:50;3.90;;;3.30;;
37903;SDS011;23738;50.422;18.758;2023-04-01T10:14:49;3.20;;;2.20;;
37903;SDS011;23738;50.422;18.758;2023-04-01T10:20:54;3.10;;;2.70;;
37903;SDS011;23738;50.422;18.758;2023-04-01T10:26:44;2.90;;;2.20;;
37903;SDS011;23738;50.422;18.758;2023-04-01T10:29:43;3.70;;;2.90;;
37903;SDS011;23738;50.422;18.758;2023-04-01T10:32:47;3.60;;;3.00;;
37903;SDS011;23738;50.422;18.758;2023-04-01T10:39:17;3.20;;;2.60;;
37903;SDS011;23738;50.422;18.758;2023-04-01T10:45:26;2.00;;;1.60;;
37903;SDS011;23738;50.422;18.758;2023-04-01T10:48:31;3.30;;;1.70;;
37903;SDS011;23738;50.422;18.758;2023-04-01T10:54:47;2.10;;;1.60;;
37903;SDS011;23738;50.422;18.758;2023-04-01T11:00:40;2.00;;;1.40;;
37903;SDS011;23738;50.422;18.758;2023-04-01T11:43:08;1.70;;;1.10;;
37903;SDS011;23738;50.422;18.758;2023-04-01T11:45:43;2.20;;;1.20;;
37903;SDS011;23738;50.422;18.758;2023-04-01T11:48:19;1.50;;;1.30;;
37903;SDS011;23738;50.422;18.758;2023-04-01T11:51:06;2.20;;;1.30;;
37903;SDS011;23738;50.422;18.758;2023-04-01T11:53:46;1.90;;;1.20;;
37903;SDS011;23738;50.422;18.758;2023-04-01T11:56:26;2.00;;;1.50;;
37903;SDS011;23738;50.422;18.758;2023-04-01T11:59:08;2.40;;;1.70;;
37903;SDS011;23738;50.422;18.758;2023-04-01T12:01:54;2.80;;;2.00;;
37903;SDS011;23738;50.422;18.758;2023-04-01T12:04:41;2.10;;;1.90;;
37903;SDS011;23738;50.422;18.758;2023-04-01T12:07:22;2.90;;;2.10;;
37903;SDS011;23738;50.422;18.758;2023-04-01T12:10:03;4.00;;;2.40;;
37903;SDS011;23738;50.422;18.758;2023-04-01T12:12:45;2.40;;;2.00;;
37903;SDS011;23738;50.422;18.758;2023-04-01T12:15:23;3.20;;;2.30;;
37903;SDS011;23738;50.422;18.758;2023-04-01T12:18:03;2.60;;;1.70;;
37903;SDS011;23738;50.422;18.758;2023-04-01T12:20:43;2.50;;;1.60;;
37903;SDS011;23738;50.422;18.758;2023-04-01T12:26:17;6.50;;;2.60;;
37903;SDS011;23738;50.422;18.758;2023-04-01T12:28:59;2.30;;;1.90;;
37903;SDS011;23738;50.422;18.758;2023-04-01T12:31:44;2.00;;;1.70;;
37903;SDS011;23738;50.422;18.758;2023-04-01T12:34:31;2.80;;;1.70;;
37903;SDS011;23738;50.422;18.758;2023-04-01T12:37:12;2.20;;;1.80;;
37903;SDS011;23738;50.422;18.758;2023-04-01T12:43:08;3.20;;;2.60;;
37903;SDS011;23738;50.422;18.758;2023-04-01T12:45:51;2.90;;;2.30;;
37903;SDS011;23738;50.422;18.758;2023-04-01T12:48:33;3.30;;;2.00;;
37903;SDS011;23738;50.422;18.758;2023-04-01T12:51:24;3.10;;;2.10;;
37903;SDS011;23738;50.422;18.758;2023-04-01T12:54:10;4.30;;;2.50;;
37903;SDS011;23738;50.422;18.758;2023-04-01T12:56:54;3.70;;;2.50;;
37903;SDS011;23738;50.422;18.758;2023-04-01T12:59:35;5.60;;;3.10;;
37903;SDS011;23738;50.422;18.758;2023-04-01T13:02:19;6.00;;;3.40;;
37903;SDS011;23738;50.422;18.758;2023-04-01T13:05:14;4.90;;;2.30;;
37903;SDS011;23738;50.422;18.758;2023-04-01T13:07:59;3.20;;;2.10;;
37903;SDS011;23738;50.422;18.758;2023-04-01T13:10:40;3.10;;;2.00;;
37903;SDS011;23738;50.422;18.758;2023-04-01T13:13:36;3.70;;;2.10;;
37903;SDS011;23738;50.422;18.758;2023-04-01T13:16:17;2.60;;;1.80;;
37903;SDS011;23738;50.422;18.758;2023-04-01T13:18:52;2.50;;;1.80;;
37903;SDS011;23738;50.422;18.758;2023-04-01T13:21:27;2.80;;;2.10;;
37903;SDS011;23738;50.422;18.758;2023-04-01T13:24:04;3.30;;;1.90;;
37903;SDS011;23738;50.422;18.758;2023-04-01T13:26:39;4.90;;;2.40;;
37903;SDS011;23738;50.422;18.758;2023-04-01T13:29:17;3.40;;;2.50;;
37903;SDS011;23738;50.422;18.758;2023-04-01T13:31:51;3.60;;;2.80;;
37903;SDS011;23738;50.422;18.758;2023-04-01T13:34:32;4.20;;;2.70;;
37903;SDS011;23738;50.422;18.758;2023-04-01T13:37:10;2.80;;;2.40;;
37903;SDS011;23738;50.422;18.758;2023-04-01T13:42:26;3.90;;;3.00;;
37903;SDS011;23738;50.422;18.758;2023-04-01T13:44:59;4.60;;;3.40;;
37903;SDS011;23738;50.422;18.758;2023-04-01T13:47:41;3.80;;;2.10;;
37903;SDS011;23738;50.422;18.758;2023-04-01T13:50:38;2.50;;;1.80;;
37903;SDS011;23738;50.422;18.758;2023-04-01T13:53:42;11.80;;;8.50;;
37903;SDS011;23738;50.422;18.758;2023-04-01T13:56:29;9.30;;;7.60;;
37903;SDS011;23738;50.422;18.758;2023-04-01T14:02:02;3.30;;;2.90;;
37903;SDS011;23738;50.422;18.758;2023-04-01T14:05:00;4.30;;;3.70;;
37903;SDS011;23738;50.422;18.758;2023-04-01T14:07:55;3.90;;;2.80;;
37903;SDS011;23738;50.422;18.758;2023-04-01T14:10:34;4.90;;;3.90;;
37903;SDS011;23738;50.422;18.758;2023-04-01T14:13:07;4.70;;;3.30;;
37903;SDS011;23738;50.422;18.758;2023-04-01T14:18:44;5.00;;;4.10;;
37903;SDS011;23738;50.422;18.758;2023-04-01T14:21:26;3.30;;;2.20;;
37903;SDS011;23738;50.422;18.758;2023-04-01T14:24:19;2.90;;;2.30;;
37903;SDS011;23738;50.422;18.758;2023-04-01T14:27:06;4.30;;;2.60;;
37903;SDS011;23738;50.422;18.758;2023-04-01T14:29:48;3.50;;;2.60;;
37903;SDS011;23738;50.422;18.758;2023-04-01T14:32:28;2.40;;;1.70;;
37903;SDS011;23738;50.422;18.758;2023-04-01T14:37:58;3.40;;;2.20;;
37903;SDS011;23738;50.422;18.758;2023-04-01T14:40:40;2.80;;;2.60;;
37903;SDS011;23738;50.422;18.758;2023-04-01T14:43:22;2.90;;;1.70;;
37903;SDS011;23738;50.422;18.758;2023-04-01T14:49:14;1.80;;;1.50;;
37903;SDS011;23738;50.422;18.758;2023-04-01T14:51:46;3.50;;;2.60;;
37903;SDS011;23738;50.422;18.758;2023-04-01T14:54:14;3.20;;;2.70;;
37903;SDS011;23738;50.422;18.758;2023-04-01T14:56:49;3.30;;;2.90;;
37903;SDS011;23738;50.422;18.758;2023-04-01T14:59:26;3.80;;;3.40;;
37903;SDS011;23738;50.422;18.758;2023-04-01T15:01:57;5.20;;;3.40;;
37903;SDS011;23738;50.422;18.758;2023-04-01T15:04:38;3.90;;;3.30;;
37903;SDS011;23738;50.422;18.758;2023-04-01T15:13:22;6.20;;;4.60;;
37903;SDS011;23738;50.422;18.758;2023-04-01T15:18:40;9.70;;;7.20;;
37903;SDS011;23738;50.422;18.758;2023-04-01T15:21:26;4.70;;;3.90;;
37903;SDS011;23738;50.422;18.758;2023-04-01T15:24:11;6.30;;;3.60;;
37903;SDS011;23738;50.422;18.758;2023-04-01T15:26:50;5.30;;;4.50;;
37903;SDS011;23738;50.422;18.758;2023-04-01T15:29:30;7.30;;;6.30;;
37903;SDS011;23738;50.422;18.758;2023-04-01T15:32:21;5.70;;;5.20;;
37903;SDS011;23738;50.422;18.758;2023-04-01T15:34:55;7.70;;;6.60;;
37903;SDS011;23738;50.422;18.758;2023-04-01T15:37:29;7.20;;;6.50;;
37903;SDS011;23738;50.422;18.758;2023-04-01T15:40:07;9.70;;;6.50;;
37903;SDS011;23738;50.422;18.758;2023-04-01T15:42:53;6.60;;;6.00;;
37903;SDS011;23738;50.422;18.758;2023-04-01T15:45:34;7.40;;;6.00;;
37903;SDS011;23738;50.422;18.758;2023-04-01T15:48:16;7.60;;;5.70;;
37903;SDS011;23738;50.422;18.758;2023-04-01T15:51:04;5.80;;;4.70;;
37903;SDS011;23738;50.422;18.758;2023-04-01T15:53:46;7.10;;;5.20;;
37903;SDS011;23738;50.422;18.758;2023-04-01T15:56:24;5.40;;;4.80;;
37903;SDS011;23738;50.422;18.758;2023-04-01T15:58:58;6.90;;;4.40;;
37903;SDS011;23738;50.422;18.758;2023-04-01T16:01:36;9.40;;;4.70;;
37903;SDS011;23738;50.422;18.758;2023-04-01T16:04:19;6.10;;;4.10;;
37903;SDS011;23738;50.422;18.758;2023-04-01T16:07:05;5.10;;;4.00;;
37903;SDS011;23738;50.422;18.758;2023-04-01T16:09:58;5.00;;;3.80;;
37903;SDS011;23738;50.422;18.758;2023-04-01T16:12:47;4.40;;;3.40;;
37903;SDS011;23738;50.422;18.758;2023-04-01T16:15:26;3.40;;;2.80;;
37903;SDS011;23738;50.422;18.758;2023-04-01T16:18:10;4.20;;;3.40;;
37903;SDS011;23738;50.422;18.758;2023-04-01T16:20:49;5.20;;;4.10;;
37903;SDS011;23738;50.422;18.758;2023-04-01T16:23:22;6.60;;;5.70;;
37903;SDS011;23738;50.422;18.758;2023-04-01T16:25:59;7.40;;;5.30;;
37903;SDS011;23738;50.422;18.758;2023-04-01T16:28:32;9.20;;;5.10;;
37903;SDS011;23738;50.422;18.758;2023-04-01T16:31:05;5.80;;;4.50;;
37903;SDS011;23738;50.422;18.758;2023-04-01T16:33:39;6.50;;;4.40;;
37903;SDS011;23738;50.422;18.758;2023-04-01T16:36:17;5.10;;;4.50;;
37903;SDS011;23738;50.422;18.758;2023-04-01T16:38:52;4.80;;;4.20;;
37903;SDS011;23738;50.422;18.758;2023-04-01T16:41:29;3.70;;;3.40;;
37903;SDS011;23738;50.422;18.758;2023-04-01T16:44:09;4.90;;;4.10;;
37903;SDS011;23738;50.422;18.758;2023-04-01T16:46:44;6.10;;;4.20;;
37903;SDS011;23738;50.422;18.758;2023-04-01T16:49:22;5.80;;;4.90;;
37903;SDS011;23738;50.422;18.758;2023-04-01T16:51:54;5.30;;;4.30;;
37903;SDS011;23738;50.422;18.758;2023-04-01T16:54:31;4.30;;;3.90;;
37903;SDS011;23738;50.422;18.758;2023-04-01T16:57:12;6.60;;;6.00;;
37903;SDS011;23738;50.422;18.758;2023-04-01T16:59:46;6.40;;;5.20;;
37903;SDS011;23738;50.422;18.758;2023-04-01T17:02:22;5.90;;;4.10;;
37903;SDS011;23738;50.422;18.758;2023-04-01T17:04:54;5.50;;;4.30;;
37903;SDS011;23738;50.422;18.758;2023-04-01T17:07:28;7.90;;;6.10;;
37903;SDS011;23738;50.422;18.758;2023-04-01T17:10:24;8.10;;;7.20;;
37903;SDS011;23738;50.422;18.758;2023-04-01T17:13:05;10.80;;;7.50;;
37903;SDS011;23738;50.422;18.758;2023-04-01T17:15:50;15.20;;;10.90;;
37903;SDS011;23738;50.422;18.758;2023-04-01T17:18:29;16.10;;;11.70;;
37903;SDS011;23738;50.422;18.758;2023-04-01T17:21:05;14.00;;;9.40;;
37903;SDS011;23738;50.422;18.758;2023-04-01T17:23:37;14.80;;;9.40;;
37903;SDS011;23738;50.422;18.758;2023-04-01T17:26:13;11.50;;;8.70;;
37903;SDS011;23738;50.422;18.758;2023-04-01T17:28:54;10.20;;;7.80;;
37903;SDS011;23738;50.422;18.758;2023-04-01T17:31:33;7.90;;;6.70;;
37903;SDS011;23738;50.422;18.758;2023-04-01T17:37:16;8.30;;;6.40;;
37903;SDS011;23738;50.422;18.758;2023-04-01T17:40:05;8.90;;;6.80;;